sensor_id;sensor_type;location;lat;lon;timestamp;pressure;altitude;pressure_sealevel;temperature;humidity
23361;BME280;11852;50.082;18.554;2023-03-26T00:00:42;97639.0;;;8.74;71.4
23361;BME280;11852;50.082;18.554;2023-03-26T00:01:48;97639.5;;;8.6;71.75
23361;BME280;11852;50.082;18.554;2023-03-26T00:02:55;97639.0;;;8.56;71.93
23361;BME280;11852;50.082;18.554;2023-03-26T00:04:03;97636.0;;;8.57;71.58
23361;BME280;11852;50.082;18.554;2023-03-26T00:05:09;97635.0;;;8.57;71.49
23361;BME280;11852;50.082;18.554;2023-03-26T00:06:16;97637.5;;;8.6;71.19
23361;BME280;11852;50.082;18.554;2023-03-26T00:07:23;97640.5;;;8.68;70.93
23361;BME280;11852;50.082;18.554;2023-03-26T00:08:30;97641.0;;;8.62;71.38
23361;BME280;11852;50.082;18.554;2023-03-26T00:09:37;97636.0;;;8.63;71.32
23361;BME280;11852;50.082;18.554;2023-03-26T00:10:43;97636.0;;;8.48;71.97
23361;BME280;11852;50.082;18.554;2023-03-26T00:11:50;97636.5;;;8.4;71.74
23361;BME280;11852;50.082;18.554;2023-03-26T00:12:57;97641.0;;;8.52;71.08
23361;BME280;11852;50.082;18.554;2023-03-26T00:14:04;97639.5;;;8.52;71.57
23361;BME280;11852;50.082;18.554;2023-03-26T00:15:11;97637.0;;;8.44;71.68
23361;BME280;11852;50.082;18.554;2023-03-26T00:16:18;97640.0;;;8.56;71.54
23361;BME280;11852;50.082;18.554;2023-03-26T00:17:24;97641.5;;;8.56;71.44
23361;BME280;11852;50.082;18.554;2023-03-26T00:18:32;97639.0;;;8.52;71.67
23361;BME280;11852;50.082;18.554;2023-03-26T00:19:38;97635.5;;;8.44;71.82
23361;BME280;11852;50.082;18.554;2023-03-26T00:20:45;97636.0;;;8.36;71.82
23361;BME280;11852;50.082;18.554;2023-03-26T00:21:52;97634.5;;;8.59;71.16
23361;BME280;11852;50.082;18.554;2023-03-26T00:23:02;97630.5;;;8.43;71.47
23361;BME280;11852;50.082;18.554;2023-03-26T00:24:12;97628.0;;;8.48;71.54
23361;BME280;11852;50.082;18.554;2023-03-26T00:25:18;97626.0;;;8.43;71.77
23361;BME280;11852;50.082;18.554;2023-03-26T00:26:25;97627.0;;;8.4;72.1
23361;BME280;11852;50.082;18.554;2023-03-26T00:27:32;97630.5;;;8.38;72.12
23361;BME280;11852;50.082;18.554;2023-03-26T00:28:39;97632.0;;;8.4;72.09
23361;BME280;11852;50.082;18.554;2023-03-26T00:29:45;97634.5;;;8.4;72.12
23361;BME280;11852;50.082;18.554;2023-03-26T00:31:01;97635.0;;;8.48;71.83
23361;BME280;11852;50.082;18.554;2023-03-26T00:32:04;97633.5;;;8.25;72.49
23361;BME280;11852;50.082;18.554;2023-03-26T00:33:11;97630.51;;;8.15;72.54
23361;BME280;11852;50.082;18.554;2023-03-26T00:34:18;97631.0;;;8.15;72.58
23361;BME280;11852;50.082;18.554;2023-03-26T00:35:25;97627.0;;;8.12;72.83
23361;BME280;11852;50.082;18.554;2023-03-26T00:36:32;97627.0;;;8.16;72.62
23361;BME280;11852;50.082;18.554;2023-03-26T00:37:39;97625.0;;;8.16;72.67
23361;BME280;11852;50.082;18.554;2023-03-26T00:38:45;97625.5;;;8.15;72.56
23361;BME280;11852;50.082;18.554;2023-03-26T00:39:52;97621.0;;;8.16;72.43
23361;BME280;11852;50.082;18.554;2023-03-26T00:40:59;97619.99;;;8.06;73.04
23361;BME280;11852;50.082;18.554;2023-03-26T00:42:06;97616.0;;;8.06;72.78
23361;BME280;11852;50.082;18.554;2023-03-26T00:43:13;97613.5;;;8.01;72.56
23361;BME280;11852;50.082;18.554;2023-03-26T00:44:19;97613.5;;;8.05;72.71
23361;BME280;11852;50.082;18.554;2023-03-26T00:45:26;97616.0;;;7.98;72.86
23361;BME280;11852;50.082;18.554;2023-03-26T00:46:33;97617.01;;;7.91;73.18
23361;BME280;11852;50.082;18.554;2023-03-26T00:47:40;97619.99;;;7.99;73.07
23361;BME280;11852;50.082;18.554;2023-03-26T00:48:47;97617.01;;;7.86;73.25
23361;BME280;11852;50.082;18.554;2023-03-26T00:49:54;97617.01;;;7.81;73.65
23361;BME280;11852;50.082;18.554;2023-03-26T00:51:00;97614.5;;;7.8;73.57
23361;BME280;11852;50.082;18.554;2023-03-26T00:52:07;97618.5;;;7.93;73.17
23361;BME280;11852;50.082;18.554;2023-03-26T00:53:14;97623.0;;;7.75;73.54
23361;BME280;11852;50.082;18.554;2023-03-26T00:54:21;97624.5;;;7.73;73.97
23361;BME280;11852;50.082;18.554;2023-03-26T00:55:27;97625.0;;;7.72;73.89
23361;BME280;11852;50.082;18.554;2023-03-26T00:56:34;97623.0;;;7.73;73.85
23361;BME280;11852;50.082;18.554;2023-03-26T00:57:41;97622.5;;;7.8;73.54
23361;BME280;11852;50.082;18.554;2023-03-26T00:58:48;97620.0;;;7.68;74.03
23361;BME280;11852;50.082;18.554;2023-03-26T00:59:55;97620.49;;;7.62;73.9
23361;BME280;11852;50.082;18.554;2023-03-26T01:01:06;97617.01;;;7.71;73.4
23361;BME280;11852;50.082;18.554;2023-03-26T01:02:10;97618.5;;;7.78;73.42
23361;BME280;11852;50.082;18.554;2023-03-26T01:03:16;97617.01;;;7.85;73.54
23361;BME280;11852;50.082;18.554;2023-03-26T01:04:30;97609.5;;;7.63;74.21
23361;BME280;11852;50.082;18.554;2023-03-26T01:05:40;97607.99;;;7.64;74.16
23361;BME280;11852;50.082;18.554;2023-03-26T01:06:45;97609.0;;;7.65;74.17
23361;BME280;11852;50.082;18.554;2023-03-26T01:07:52;97611.0;;;7.61;74.31
23361;BME280;11852;50.082;18.554;2023-03-26T01:09:08;97610.5;;;7.66;74.1
23361;BME280;11852;50.082;18.554;2023-03-26T01:10:11;97613.5;;;7.49;74.51
23361;BME280;11852;50.082;18.554;2023-03-26T01:11:21;97613.0;;;7.53;74.57
23361;BME280;11852;50.082;18.554;2023-03-26T01:12:28;97616.5;;;7.67;74.07
23361;BME280;11852;50.082;18.554;2023-03-26T01:13:37;97615.0;;;7.61;74.36
23361;BME280;11852;50.082;18.554;2023-03-26T01:14:45;97615.5;;;7.64;74.23
23361;BME280;11852;50.082;18.554;2023-03-26T01:15:51;97615.5;;;7.59;74.51
23361;BME280;11852;50.082;18.554;2023-03-26T01:16:59;97620.0;;;7.58;74.5
23361;BME280;11852;50.082;18.554;2023-03-26T01:18:04;97617.0;;;7.61;74.38
23361;BME280;11852;50.082;18.554;2023-03-26T01:20:23;97615.5;;;7.61;74.32
23361;BME280;11852;50.082;18.554;2023-03-26T01:21:30;97615.5;;;7.51;74.85
23361;BME280;11852;50.082;18.554;2023-03-26T01:22:37;97619.99;;;7.58;74.57
23361;BME280;11852;50.082;18.554;2023-03-26T01:23:45;97619.5;;;7.55;74.78
23361;BME280;11852;50.082;18.554;2023-03-26T01:24:53;97615.0;;;7.53;74.6
23361;BME280;11852;50.082;18.554;2023-03-26T01:26:03;97612.5;;;7.53;74.63
23361;BME280;11852;50.082;18.554;2023-03-26T01:28:24;97617.01;;;7.55;74.55
23361;BME280;11852;50.082;18.554;2023-03-26T01:29:32;97617.01;;;7.66;74.2
23361;BME280;11852;50.082;18.554;2023-03-26T01:30:39;97615.5;;;7.6;74.43
23361;BME280;11852;50.082;18.554;2023-03-26T01:31:53;97614.0;;;7.41;75.15
23361;BME280;11852;50.082;18.554;2023-03-26T01:33:04;97613.5;;;7.47;74.95
23361;BME280;11852;50.082;18.554;2023-03-26T01:42:38;97603.5;;;7.34;75.42
23361;BME280;11852;50.082;18.554;2023-03-26T01:43:50;97598.0;;;7.32;75.6
23361;BME280;11852;50.082;18.554;2023-03-26T01:45:23;97599.0;;;7.28;75.78
23361;BME280;11852;50.082;18.554;2023-03-26T01:46:08;97602.0;;;7.36;75.43
23361;BME280;11852;50.082;18.554;2023-03-26T01:47:14;97607.5;;;7.33;75.59
23361;BME280;11852;50.082;18.554;2023-03-26T01:48:27;97605.01;;;7.24;75.82
23361;BME280;11852;50.082;18.554;2023-03-26T01:49:28;97607.5;;;7.29;75.88
23361;BME280;11852;50.082;18.554;2023-03-26T01:50:34;97604.5;;;7.49;74.95
23361;BME280;11852;50.082;18.554;2023-03-26T01:51:41;97607.5;;;7.4;75.45
23361;BME280;11852;50.082;18.554;2023-03-26T01:52:48;97608.0;;;7.41;75.56
23361;BME280;11852;50.082;18.554;2023-03-26T01:53:55;97605.5;;;7.28;75.76
23361;BME280;11852;50.082;18.554;2023-03-26T01:55:02;97607.49;;;7.24;76.09
23361;BME280;11852;50.082;18.554;2023-03-26T01:56:15;97603.5;;;7.24;75.93
23361;BME280;11852;50.082;18.554;2023-03-26T01:57:29;97603.5;;;7.3;75.71
23361;BME280;11852;50.082;18.554;2023-03-26T01:58:38;97605.01;;;7.36;75.49
23361;BME280;11852;50.082;18.554;2023-03-26T02:01:05;97599.5;;;7.32;75.81
23361;BME280;11852;50.082;18.554;2023-03-26T02:02:13;97594.99;;;7.31;75.49
23361;BME280;11852;50.082;18.554;2023-03-26T02:04:39;97589.5;;;7.53;75.19
23361;BME280;11852;50.082;18.554;2023-03-26T02:05:48;97595.49;;;7.48;75.46
23361;BME280;11852;50.082;18.554;2023-03-26T02:07:16;97593.5;;;7.39;75.79
23361;BME280;11852;50.082;18.554;2023-03-26T02:09:15;97591.0;;;7.43;75.58
23361;BME280;11852;50.082;18.554;2023-03-26T02:11:28;97594.0;;;7.43;75.43
23361;BME280;11852;50.082;18.554;2023-03-26T02:12:35;97595.49;;;7.55;75.01
23361;BME280;11852;50.082;18.554;2023-03-26T02:13:43;97593.5;;;7.51;75.13
23361;BME280;11852;50.082;18.554;2023-03-26T02:14:48;97589.5;;;7.48;75.15
23361;BME280;11852;50.082;18.554;2023-03-26T02:16:02;97594.49;;;7.56;74.76
23361;BME280;11852;50.082;18.554;2023-03-26T02:17:08;97594.49;;;7.63;74.68
23361;BME280;11852;50.082;18.554;2023-03-26T02:18:15;97589.0;;;7.6;75.03
23361;BME280;11852;50.082;18.554;2023-03-26T02:19:21;97583.0;;;7.58;75.06
23361;BME280;11852;50.082;18.554;2023-03-26T02:20:28;97583.5;;;7.71;74.71
23361;BME280;11852;50.082;18.554;2023-03-26T02:21:35;97588.0;;;7.51;75.29
23361;BME280;11852;50.082;18.554;2023-03-26T02:22:42;97586.5;;;7.51;75.15
23361;BME280;11852;50.082;18.554;2023-03-26T02:23:49;97584.0;;;7.48;75.24
23361;BME280;11852;50.082;18.554;2023-03-26T02:24:55;97588.0;;;7.51;75.12
23361;BME280;11852;50.082;18.554;2023-03-26T02:26:06;97587.5;;;7.48;75.16
23361;BME280;11852;50.082;18.554;2023-03-26T02:27:12;97589.5;;;7.53;74.87
23361;BME280;11852;50.082;18.554;2023-03-26T02:28:18;97585.5;;;7.59;74.76
23361;BME280;11852;50.082;18.554;2023-03-26T02:29:25;97586.5;;;7.52;75.16
23361;BME280;11852;50.082;18.554;2023-03-26T02:30:32;97587.5;;;7.52;74.99
23361;BME280;11852;50.082;18.554;2023-03-26T02:31:39;97587.0;;;7.51;75.04
23361;BME280;11852;50.082;18.554;2023-03-26T02:32:46;97587.0;;;7.54;74.93
23361;BME280;11852;50.082;18.554;2023-03-26T02:33:53;97582.49;;;7.49;74.99
23361;BME280;11852;50.082;18.554;2023-03-26T02:35:00;97583.5;;;7.52;74.97
23361;BME280;11852;50.082;18.554;2023-03-26T02:36:06;97582.49;;;7.45;75.07
23361;BME280;11852;50.082;18.554;2023-03-26T02:37:13;97582.0;;;7.55;74.79
23361;BME280;11852;50.082;18.554;2023-03-26T02:38:20;97578.5;;;7.53;74.92
23361;BME280;11852;50.082;18.554;2023-03-26T02:39:27;97574.5;;;7.48;75.13
23361;BME280;11852;50.082;18.554;2023-03-26T02:40:34;97579.51;;;7.47;74.88
23361;BME280;11852;50.082;18.554;2023-03-26T02:41:40;97582.0;;;7.49;74.93
23361;BME280;11852;50.082;18.554;2023-03-26T02:42:47;97580.5;;;7.56;74.81
23361;BME280;11852;50.082;18.554;2023-03-26T02:43:54;97577.5;;;7.47;75.38
23361;BME280;11852;50.082;18.554;2023-03-26T02:45:01;97577.0;;;7.45;75.21
23361;BME280;11852;50.082;18.554;2023-03-26T02:46:08;97582.0;;;7.41;75.17
23361;BME280;11852;50.082;18.554;2023-03-26T02:47:15;97576.5;;;7.51;75.0
23361;BME280;11852;50.082;18.554;2023-03-26T02:48:22;97583.0;;;7.46;75.24
23361;BME280;11852;50.082;18.554;2023-03-26T02:49:28;97578.5;;;7.52;74.63
23361;BME280;11852;50.082;18.554;2023-03-26T02:50:35;97578.5;;;7.42;75.12
23361;BME280;11852;50.082;18.554;2023-03-26T02:51:42;97576.5;;;7.43;75.12
23361;BME280;11852;50.082;18.554;2023-03-26T02:52:49;97569.0;;;7.49;74.99
23361;BME280;11852;50.082;18.554;2023-03-26T02:53:56;97567.5;;;7.42;75.54
23361;BME280;11852;50.082;18.554;2023-03-26T02:55:02;97568.99;;;7.62;74.83
23361;BME280;11852;50.082;18.554;2023-03-26T02:56:09;97570.49;;;7.52;75.24
23361;BME280;11852;50.082;18.554;2023-03-26T02:57:16;97578.5;;;7.53;75.63
23361;BME280;11852;50.082;18.554;2023-03-26T02:58:23;97578.0;;;7.48;76.53
23361;BME280;11852;50.082;18.554;2023-03-26T02:59:30;97579.0;;;7.44;76.99
23361;BME280;11852;50.082;18.554;2023-03-26T03:00:37;97578.0;;;7.4;76.97
23361;BME280;11852;50.082;18.554;2023-03-26T03:01:43;97577.5;;;7.47;76.7
23361;BME280;11852;50.082;18.554;2023-03-26T03:02:50;97573.0;;;7.41;76.75
23361;BME280;11852;50.082;18.554;2023-03-26T03:03:57;97569.5;;;7.39;76.71
23361;BME280;11852;50.082;18.554;2023-03-26T03:05:04;97572.5;;;7.32;77.47
23361;BME280;11852;50.082;18.554;2023-03-26T03:06:11;97575.0;;;7.36;77.19
23361;BME280;11852;50.082;18.554;2023-03-26T03:07:18;97574.0;;;7.43;76.63
23361;BME280;11852;50.082;18.554;2023-03-26T03:08:25;97574.5;;;7.57;76.55
23361;BME280;11852;50.082;18.554;2023-03-26T03:09:31;97572.0;;;7.52;76.99
23361;BME280;11852;50.082;18.554;2023-03-26T03:10:38;97573.0;;;7.63;76.61
23361;BME280;11852;50.082;18.554;2023-03-26T03:11:45;97571.5;;;7.57;76.71
23361;BME280;11852;50.082;18.554;2023-03-26T03:12:52;97571.0;;;7.49;76.89
23361;BME280;11852;50.082;18.554;2023-03-26T03:13:59;97571.0;;;7.36;77.38
23361;BME280;11852;50.082;18.554;2023-03-26T03:15:06;97572.5;;;7.43;77.04
23361;BME280;11852;50.082;18.554;2023-03-26T03:16:13;97566.5;;;7.39;76.76
23361;BME280;11852;50.082;18.554;2023-03-26T03:17:20;97566.0;;;7.35;76.92
23361;BME280;11852;50.082;18.554;2023-03-26T03:18:26;97566.0;;;7.41;76.65
23361;BME280;11852;50.082;18.554;2023-03-26T03:19:33;97566.5;;;7.36;76.89
23361;BME280;11852;50.082;18.554;2023-03-26T03:20:40;97571.0;;;7.38;76.96
23361;BME280;11852;50.082;18.554;2023-03-26T03:21:47;97571.0;;;7.46;76.67
23361;BME280;11852;50.082;18.554;2023-03-26T03:22:54;97567.01;;;7.46;76.63
23361;BME280;11852;50.082;18.554;2023-03-26T03:24:00;97572.5;;;7.38;76.86
23361;BME280;11852;50.082;18.554;2023-03-26T03:25:12;97567.5;;;7.4;76.6
23361;BME280;11852;50.082;18.554;2023-03-26T03:26:20;97568.0;;;7.4;76.49
23361;BME280;11852;50.082;18.554;2023-03-26T03:27:26;97565.5;;;7.45;76.31
23361;BME280;11852;50.082;18.554;2023-03-26T03:28:33;97561.5;;;7.53;75.89
23361;BME280;11852;50.082;18.554;2023-03-26T03:29:39;97562.0;;;7.45;75.58
23361;BME280;11852;50.082;18.554;2023-03-26T03:30:46;97568.0;;;7.41;75.94
23361;BME280;11852;50.082;18.554;2023-03-26T03:31:53;97563.0;;;7.48;75.8
23361;BME280;11852;50.082;18.554;2023-03-26T03:33:00;97564.5;;;7.57;75.26
23361;BME280;11852;50.082;18.554;2023-03-26T03:34:07;97566.5;;;7.49;75.88
23361;BME280;11852;50.082;18.554;2023-03-26T03:35:14;97564.0;;;7.54;75.24
23361;BME280;11852;50.082;18.554;2023-03-26T03:36:23;97567.01;;;7.43;75.49
23361;BME280;11852;50.082;18.554;2023-03-26T03:37:30;97566.5;;;7.39;75.54
23361;BME280;11852;50.082;18.554;2023-03-26T03:38:38;97568.5;;;7.45;75.4
23361;BME280;11852;50.082;18.554;2023-03-26T03:39:44;97569.49;;;7.53;75.06
23361;BME280;11852;50.082;18.554;2023-03-26T03:40:51;97572.5;;;7.55;75.12
23361;BME280;11852;50.082;18.554;2023-03-26T03:41:58;97573.0;;;7.58;75.08
23361;BME280;11852;50.082;18.554;2023-03-26T03:43:05;97575.5;;;7.48;75.36
23361;BME280;11852;50.082;18.554;2023-03-26T03:44:11;97575.5;;;7.46;75.39
23361;BME280;11852;50.082;18.554;2023-03-26T03:45:18;97569.99;;;7.38;75.21
23361;BME280;11852;50.082;18.554;2023-03-26T03:46:25;97574.0;;;7.43;75.11
23361;BME280;11852;50.082;18.554;2023-03-26T03:47:32;97575.5;;;7.45;75.18
23361;BME280;11852;50.082;18.554;2023-03-26T03:48:39;97572.5;;;7.49;75.22
23361;BME280;11852;50.082;18.554;2023-03-26T03:49:46;97575.5;;;7.43;75.39
23361;BME280;11852;50.082;18.554;2023-03-26T03:50:53;97577.5;;;7.41;75.32
23361;BME280;11852;50.082;18.554;2023-03-26T03:51:59;97573.5;;;7.36;75.73
23361;BME280;11852;50.082;18.554;2023-03-26T03:53:06;97580.51;;;7.38;75.61
23361;BME280;11852;50.082;18.554;2023-03-26T03:54:13;97577.5;;;7.35;75.1
23361;BME280;11852;50.082;18.554;2023-03-26T03:55:20;97578.0;;;7.26;76.08
23361;BME280;11852;50.082;18.554;2023-03-26T03:56:26;97577.0;;;7.29;75.87
23361;BME280;11852;50.082;18.554;2023-03-26T03:57:33;97575.0;;;7.32;75.88
23361;BME280;11852;50.082;18.554;2023-03-26T03:58:40;97574.0;;;7.32;75.52
23361;BME280;11852;50.082;18.554;2023-03-26T03:59:47;97573.0;;;7.32;75.7
23361;BME280;11852;50.082;18.554;2023-03-26T04:00:54;97575.5;;;7.34;75.79
23361;BME280;11852;50.082;18.554;2023-03-26T04:02:01;97579.51;;;7.43;75.38
23361;BME280;11852;50.082;18.554;2023-03-26T04:03:07;97575.5;;;7.31;75.69
23361;BME280;11852;50.082;18.554;2023-03-26T04:04:14;97575.5;;;7.39;75.49
23361;BME280;11852;50.082;18.554;2023-03-26T04:05:21;97575.0;;;7.3;75.76
23361;BME280;11852;50.082;18.554;2023-03-26T04:06:28;97575.0;;;7.26;76.0
23361;BME280;11852;50.082;18.554;2023-03-26T04:07:35;97571.5;;;7.25;75.86
23361;BME280;11852;50.082;18.554;2023-03-26T04:08:41;97570.49;;;7.3;75.76
23361;BME280;11852;50.082;18.554;2023-03-26T04:09:48;97572.0;;;7.39;75.43
23361;BME280;11852;50.082;18.554;2023-03-26T04:10:55;97569.99;;;7.27;75.85
23361;BME280;11852;50.082;18.554;2023-03-26T04:12:02;97576.0;;;7.27;75.76
23361;BME280;11852;50.082;18.554;2023-03-26T04:13:10;97574.5;;;7.31;75.54
23361;BME280;11852;50.082;18.554;2023-03-26T04:14:16;97569.99;;;7.3;75.57
23361;BME280;11852;50.082;18.554;2023-03-26T04:15:22;97568.0;;;7.31;75.49
23361;BME280;11852;50.082;18.554;2023-03-26T04:16:29;97567.51;;;7.38;75.19
23361;BME280;11852;50.082;18.554;2023-03-26T04:17:36;97572.5;;;7.38;75.28
23361;BME280;11852;50.082;18.554;2023-03-26T04:18:43;97572.5;;;7.4;75.18
23361;BME280;11852;50.082;18.554;2023-03-26T04:19:50;97580.01;;;7.46;74.89
23361;BME280;11852;50.082;18.554;2023-03-26T04:20:57;97578.0;;;7.35;75.35
23361;BME280;11852;50.082;18.554;2023-03-26T04:22:03;97579.51;;;7.21;75.56
23361;BME280;11852;50.082;18.554;2023-03-26T04:23:13;97580.5;;;7.36;75.06
23361;BME280;11852;50.082;18.554;2023-03-26T04:24:20;97585.5;;;7.39;74.91
23361;BME280;11852;50.082;18.554;2023-03-26T04:25:27;97582.0;;;7.31;75.08
23361;BME280;11852;50.082;18.554;2023-03-26T04:26:33;97582.99;;;7.41;74.71
23361;BME280;11852;50.082;18.554;2023-03-26T04:27:40;97582.0;;;7.37;74.96
23361;BME280;11852;50.082;18.554;2023-03-26T04:28:51;97580.01;;;7.44;74.79
23361;BME280;11852;50.082;18.554;2023-03-26T04:29:57;97583.5;;;7.47;74.71
23361;BME280;11852;50.082;18.554;2023-03-26T04:31:04;97584.0;;;7.31;75.37
23361;BME280;11852;50.082;18.554;2023-03-26T04:32:21;97583.5;;;7.3;75.31
23361;BME280;11852;50.082;18.554;2023-03-26T04:33:26;97580.5;;;7.3;74.92
23361;BME280;11852;50.082;18.554;2023-03-26T04:34:32;97582.5;;;7.34;74.5
23361;BME280;11852;50.082;18.554;2023-03-26T04:35:39;97578.5;;;7.3;74.81
23361;BME280;11852;50.082;18.554;2023-03-26T04:36:46;97579.51;;;7.34;74.68
23361;BME280;11852;50.082;18.554;2023-03-26T04:37:53;97577.5;;;7.32;74.36
23361;BME280;11852;50.082;18.554;2023-03-26T04:39:00;97580.51;;;7.37;74.23
23361;BME280;11852;50.082;18.554;2023-03-26T04:40:15;97578.0;;;7.4;74.04
23361;BME280;11852;50.082;18.554;2023-03-26T04:41:19;97581.01;;;7.38;74.18
23361;BME280;11852;50.082;18.554;2023-03-26T04:42:26;97574.5;;;7.3;74.16
23361;BME280;11852;50.082;18.554;2023-03-26T04:43:36;97576.0;;;7.34;73.77
23361;BME280;11852;50.082;18.554;2023-03-26T04:44:43;97576.5;;;7.47;73.32
23361;BME280;11852;50.082;18.554;2023-03-26T04:45:49;97576.0;;;7.42;73.54
23361;BME280;11852;50.082;18.554;2023-03-26T04:46:56;97574.5;;;7.4;73.3
23361;BME280;11852;50.082;18.554;2023-03-26T04:48:03;97575.5;;;7.43;73.31
23361;BME280;11852;50.082;18.554;2023-03-26T04:49:10;97574.5;;;7.41;73.4
23361;BME280;11852;50.082;18.554;2023-03-26T04:50:17;97579.5;;;7.38;73.25
23361;BME280;11852;50.082;18.554;2023-03-26T04:51:24;97576.0;;;7.41;73.33
23361;BME280;11852;50.082;18.554;2023-03-26T04:52:31;97573.0;;;7.47;73.04
23361;BME280;11852;50.082;18.554;2023-03-26T04:53:37;97578.0;;;7.41;73.22
23361;BME280;11852;50.082;18.554;2023-03-26T04:54:44;97569.99;;;7.33;73.49
23361;BME280;11852;50.082;18.554;2023-03-26T04:55:52;97572.0;;;7.4;73.29
23361;BME280;11852;50.082;18.554;2023-03-26T04:57:02;97570.0;;;7.36;73.36
23361;BME280;11852;50.082;18.554;2023-03-26T04:58:07;97570.49;;;7.34;73.11
23361;BME280;11852;50.082;18.554;2023-03-26T04:59:16;97568.5;;;7.43;72.93
23361;BME280;11852;50.082;18.554;2023-03-26T05:00:21;97570.0;;;7.39;72.98
23361;BME280;11852;50.082;18.554;2023-03-26T05:01:28;97568.5;;;7.47;72.71
23361;BME280;11852;50.082;18.554;2023-03-26T05:02:34;97564.0;;;7.35;73.21
23361;BME280;11852;50.082;18.554;2023-03-26T05:03:42;97562.0;;;7.32;73.02
23361;BME280;11852;50.082;18.554;2023-03-26T05:04:48;97557.99;;;7.26;73.34
23361;BME280;11852;50.082;18.554;2023-03-26T05:05:59;97553.5;;;7.39;73.07
23361;BME280;11852;50.082;18.554;2023-03-26T05:07:03;97554.0;;;7.41;72.9
23361;BME280;11852;50.082;18.554;2023-03-26T05:08:10;97554.5;;;7.34;73.25
23361;BME280;11852;50.082;18.554;2023-03-26T05:09:16;97559.0;;;7.31;73.25
23361;BME280;11852;50.082;18.554;2023-03-26T05:10:23;97559.5;;;7.31;73.16
23361;BME280;11852;50.082;18.554;2023-03-26T05:11:30;97563.0;;;7.31;73.2
23361;BME280;11852;50.082;18.554;2023-03-26T05:12:37;97561.5;;;7.36;72.93
23361;BME280;11852;50.082;18.554;2023-03-26T05:13:44;97563.0;;;7.41;72.82
23361;BME280;11852;50.082;18.554;2023-03-26T05:14:50;97564.0;;;7.52;72.8
23361;BME280;11852;50.082;18.554;2023-03-26T05:15:57;97567.01;;;7.55;72.67
23361;BME280;11852;50.082;18.554;2023-03-26T05:17:04;97571.0;;;7.4;72.83
23361;BME280;11852;50.082;18.554;2023-03-26T05:18:11;97573.5;;;7.47;72.79
23361;BME280;11852;50.082;18.554;2023-03-26T05:19:18;97576.0;;;7.43;73.03
23361;BME280;11852;50.082;18.554;2023-03-26T05:20:25;97579.0;;;7.43;72.69
23361;BME280;11852;50.082;18.554;2023-03-26T05:21:31;97576.5;;;7.39;72.81
23361;BME280;11852;50.082;18.554;2023-03-26T05:22:38;97581.5;;;7.49;72.47
23361;BME280;11852;50.082;18.554;2023-03-26T05:23:45;97586.0;;;7.55;72.37
23361;BME280;11852;50.082;18.554;2023-03-26T05:24:52;97588.0;;;7.6;72.21
23361;BME280;11852;50.082;18.554;2023-03-26T05:25:58;97583.5;;;7.39;72.8
23361;BME280;11852;50.082;18.554;2023-03-26T05:27:05;97587.5;;;7.42;72.72
23361;BME280;11852;50.082;18.554;2023-03-26T05:28:12;97583.5;;;7.44;72.64
23361;BME280;11852;50.082;18.554;2023-03-26T05:29:19;97586.5;;;7.45;72.43
23361;BME280;11852;50.082;18.554;2023-03-26T05:30:26;97591.0;;;7.38;72.82
23361;BME280;11852;50.082;18.554;2023-03-26T05:31:32;97582.49;;;7.4;72.46
23361;BME280;11852;50.082;18.554;2023-03-26T05:32:39;97583.5;;;7.49;72.36
23361;BME280;11852;50.082;18.554;2023-03-26T05:33:46;97588.0;;;7.53;72.35
23361;BME280;11852;50.082;18.554;2023-03-26T05:34:53;97591.5;;;7.6;72.15
23361;BME280;11852;50.082;18.554;2023-03-26T05:36:06;97588.5;;;7.53;72.45
23361;BME280;11852;50.082;18.554;2023-03-26T05:37:12;97589.5;;;7.62;72.25
23361;BME280;11852;50.082;18.554;2023-03-26T05:38:19;97592.01;;;7.61;72.22
23361;BME280;11852;50.082;18.554;2023-03-26T05:39:25;97589.0;;;7.51;72.51
23361;BME280;11852;50.082;18.554;2023-03-26T05:40:32;97590.0;;;7.59;72.33
23361;BME280;11852;50.082;18.554;2023-03-26T05:41:39;97586.0;;;7.52;72.74
23361;BME280;11852;50.082;18.554;2023-03-26T05:42:46;97585.5;;;7.48;72.43
23361;BME280;11852;50.082;18.554;2023-03-26T05:43:53;97583.5;;;7.59;72.26
23361;BME280;11852;50.082;18.554;2023-03-26T05:45:00;97584.5;;;7.59;72.13
23361;BME280;11852;50.082;18.554;2023-03-26T05:46:06;97589.5;;;7.68;72.06
23361;BME280;11852;50.082;18.554;2023-03-26T05:47:13;97585.0;;;7.66;71.93
23361;BME280;11852;50.082;18.554;2023-03-26T05:48:20;97587.5;;;7.56;72.34
23361;BME280;11852;50.082;18.554;2023-03-26T05:49:27;97586.0;;;7.66;72.2
23361;BME280;11852;50.082;18.554;2023-03-26T05:50:34;97585.0;;;7.55;72.32
23361;BME280;11852;50.082;18.554;2023-03-26T05:51:40;97585.5;;;7.51;72.4
23361;BME280;11852;50.082;18.554;2023-03-26T05:52:47;97587.5;;;7.62;72.05
23361;BME280;11852;50.082;18.554;2023-03-26T05:53:54;97588.0;;;7.53;72.28
23361;BME280;11852;50.082;18.554;2023-03-26T05:55:01;97589.0;;;7.67;71.75
23361;BME280;11852;50.082;18.554;2023-03-26T05:56:08;97589.0;;;7.74;71.51
23361;BME280;11852;50.082;18.554;2023-03-26T05:57:14;97592.01;;;7.76;71.73
23361;BME280;11852;50.082;18.554;2023-03-26T05:58:22;97593.0;;;7.56;72.24
23361;BME280;11852;50.082;18.554;2023-03-26T05:59:28;97593.0;;;7.59;72.22
23361;BME280;11852;50.082;18.554;2023-03-26T06:00:35;97597.0;;;7.65;71.93
23361;BME280;11852;50.082;18.554;2023-03-26T06:01:42;97592.5;;;7.66;72.3
23361;BME280;11852;50.082;18.554;2023-03-26T06:02:49;97589.0;;;7.59;72.5
23361;BME280;11852;50.082;18.554;2023-03-26T06:03:55;97590.0;;;7.65;72.11
23361;BME280;11852;50.082;18.554;2023-03-26T06:05:02;97590.0;;;7.61;72.4
23361;BME280;11852;50.082;18.554;2023-03-26T06:06:10;97595.49;;;7.63;71.79
23361;BME280;11852;50.082;18.554;2023-03-26T06:07:16;97593.01;;;7.68;71.59
23361;BME280;11852;50.082;18.554;2023-03-26T06:08:23;97591.0;;;7.61;72.03
23361;BME280;11852;50.082;18.554;2023-03-26T06:09:30;97590.0;;;7.63;71.94
23361;BME280;11852;50.082;18.554;2023-03-26T06:10:37;97592.5;;;7.81;71.4
23361;BME280;11852;50.082;18.554;2023-03-26T06:11:44;97592.51;;;7.72;71.82
23361;BME280;11852;50.082;18.554;2023-03-26T06:12:50;97594.0;;;7.75;71.61
23361;BME280;11852;50.082;18.554;2023-03-26T06:13:57;97594.5;;;7.78;71.42
23361;BME280;11852;50.082;18.554;2023-03-26T06:15:04;97591.5;;;7.71;71.77
23361;BME280;11852;50.082;18.554;2023-03-26T06:16:11;97593.01;;;7.71;71.69